Time;durP1;ratioP1;P1;durP2;ratioP2;P2;SDS_P1;SDS_P2;PMS_P1;PMS_P2;Temp;Humidity;BMP_temperature;BMP_pressure;BME280_temperature;BME280_humidity;BME280_pressure;Samples;Min_cycle;Max_cycle;Signal;HPM_P1;HPM_P2
2023/01/07 00:04:29;;;;;;;5.87;3.10;;;;;10.10;101124.00;;;;10476043;28;20193;-80
2023/01/07 00:09:31;;;;;;;4.07;3.27;;;;;10.00;101122.00;;;;10467278;28;20193;-80
2023/01/07 00:14:35;;;;;;;5.17;3.10;;;;;10.00;101111.00;;;;10479217;28;20258;-80
2023/01/07 00:19:37;;;;;;;4.43;3.43;;;;;10.00;101094.00;;;;10491367;28;20177;-80
2023/01/07 00:24:39;;;;;;;6.13;3.53;;;;;9.90;101091.00;;;;10489087;28;20256;-80
2023/01/07 00:29:41;;;;;;;6.70;3.50;;;;;9.80;101087.00;;;;10507868;28;20217;-80
2023/01/07 00:34:43;;;;;;;5.37;3.57;;;;;9.80;101083.00;;;;10467812;28;20212;-80
2023/01/07 00:39:44;;;;;;;6.90;3.60;;;;;9.70;101085.00;;;;10433483;28;20198;-80
2023/01/07 00:44:46;;;;;;;7.17;3.67;;;;;9.70;101077.00;;;;10465960;28;20178;-80
2023/01/07 00:49:48;;;;;;;6.83;3.97;;;;;9.80;101068.00;;;;10482565;28;20194;-80
2023/01/07 00:54:50;;;;;;;6.37;4.63;;;;;9.70;101065.00;;;;10457731;28;20201;-80
2023/01/07 00:59:52;;;;;;;5.17;3.50;;;;;9.70;101061.00;;;;10490604;28;20204;-80
2023/01/07 01:04:54;;;;;;;5.77;3.83;;;;;9.70;101051.00;;;;10507329;28;20197;-80
2023/01/07 01:09:56;;;;;;;7.27;3.70;;;;;9.60;101039.00;;;;10490347;28;20659;-80
2023/01/07 01:14:58;;;;;;;7.27;3.47;;;;;9.60;101034.00;;;;10485296;28;20213;-81
2023/01/07 01:20:00;;;;;;;7.50;3.60;;;;;9.60;101025.00;;;;10503460;28;20188;-81
2023/01/07 01:25:02;;;;;;;3.57;3.27;;;;;9.60;101025.00;;;;10446909;28;20722;-81
2023/01/07 01:30:06;;;;;;;6.67;3.97;;;;;9.60;101026.00;;;;10481506;28;20204;-80
2023/01/07 01:35:11;;;;;;;6.87;3.47;;;;;9.60;101017.00;;;;10497686;28;20213;-80
2023/01/07 01:40:13;;;;;;;8.53;3.77;;;;;9.70;101015.00;;;;10480556;28;20228;-80
2023/01/07 01:45:15;;;;;;;5.23;3.37;;;;;9.80;101024.00;;;;10479907;28;20186;-80
2023/01/07 01:50:42;;;;;;;7.30;4.10;;;;;9.90;101020.00;;;;10497548;28;20200;-80
2023/01/07 01:56:09;;;;;;;8.00;3.73;;;;;10.00;101030.00;;;;10505083;28;20699;-80
2023/01/07 02:01:12;;;;;;;5.07;3.67;;;;;10.00;101029.00;;;;10467052;28;20195;-78
2023/01/07 02:12:35;;;;;;;4.23;2.83;;;;;10.20;101019.00;;;;10282522;24;20242;-80
2023/01/07 02:18:09;;;;;;;4.60;2.93;;;;;10.20;101017.00;;;;9860385;30;20566;-80
2023/01/07 02:23:30;;;;;;;5.00;2.83;;;;;10.20;101008.00;;;;9902495;29;20547;-80
2023/01/07 02:28:53;;;;;;;4.83;3.20;;;;;10.30;101005.00;;;;9888838;30;20218;-80
2023/01/07 02:34:26;;;;;;;3.43;2.60;;;;;10.30;101013.00;;;;9879892;30;20211;-80
2023/01/07 02:39:42;;;;;;;4.83;2.60;;;;;10.40;101009.00;;;;9892496;29;20219;-80
2023/01/07 02:44:59;;;;;;;4.67;2.50;;;;;10.40;100998.00;;;;9857958;30;20227;-80
2023/01/07 02:50:01;;;;;;;2.50;2.30;;;;;10.40;100994.00;;;;9880137;30;20286;-80
2023/01/07 02:55:12;;;;;;;4.10;2.30;;;;;10.40;100992.00;;;;9858826;29;20591;-80
2023/01/07 03:00:27;;;;;;;4.37;2.03;;;;;10.40;100996.00;;;;9857879;30;20696;-80
2023/01/07 03:05:35;;;;;;;2.77;2.27;;;;;10.40;100984.00;;;;9873399;30;20282;-80
2023/01/07 03:10:46;;;;;;;4.50;2.37;;;;;10.40;100971.00;;;;9873070;29;20338;-80
2023/01/07 03:16:10;;;;;;;6.60;2.27;;;;;10.30;100973.00;;;;9872755;30;20212;-80
2023/01/07 03:21:15;;;;;;;3.20;2.40;;;;;10.20;100957.00;;;;9883457;30;20683;-80
2023/01/07 03:26:24;;;;;;;4.43;2.30;;;;;10.20;100953.00;;;;9835798;30;20210;-80
2023/01/07 03:31:28;;;;;;;2.90;2.00;;;;;10.10;100945.00;;;;9869119;30;20732;-80
2023/01/07 03:36:41;;;;;;;2.47;2.10;;;;;10.10;100937.00;;;;9872906;30;20683;-80
2023/01/07 03:47:06;;;;;;;2.73;2.00;;;;;10.00;100937.00;;;;9886498;30;20214;-80
2023/01/07 03:52:08;;;;;;;3.70;1.80;;;;;9.90;100935.00;;;;9888424;29;20212;-80
2023/01/07 03:57:10;;;;;;;2.67;2.17;;;;;9.90;100925.00;;;;9892504;30;20299;-80
2023/01/07 04:02:13;;;;;;;4.13;1.60;;;;;9.90;100915.00;;;;9877899;30;20287;-80
2023/01/07 04:07:15;;;;;;;2.37;1.60;;;;;9.80;100906.00;;;;9877850;30;20215;-80
2023/01/07 04:12:17;;;;;;;2.40;1.80;;;;;9.70;100903.00;;;;9907819;29;20234;-80
2023/01/07 04:17:20;;;;;;;2.27;1.70;;;;;9.60;100892.00;;;;9898219;30;20322;-80
2023/01/07 04:22:22;;;;;;;3.43;1.53;;;;;9.60;100890.00;;;;9894023;30;20192;-80
2023/01/07 04:27:24;;;;;;;3.43;1.50;;;;;9.70;100887.00;;;;9892456;30;20208;-80
2023/01/07 04:32:26;;;;;;;1.80;1.47;;;;;9.70;100864.00;;;;9862896;30;20222;-81
2023/01/07 04:37:28;;;;;;;1.77;1.37;;;;;9.80;100860.00;;;;9877616;30;20679;-80
2023/01/07 04:42:31;;;;;;;3.23;1.27;;;;;9.90;100850.00;;;;9877222;30;20329;-80
2023/01/07 04:47:33;;;;;;;1.30;1.20;;;;;9.90;100836.00;;;;9843518;30;20259;-80
2023/01/07 04:52:36;;;;;;;1.87;1.27;;;;;9.90;100823.00;;;;9855015;30;20567;-81
2023/01/07 04:57:39;;;;;;;1.73;1.03;;;;;10.00;100813.00;;;;9873168;30;20692;-80
2023/01/07 05:02:42;;;;;;;1.70;1.20;;;;;9.90;100819.00;;;;9891005;29;20290;-80
2023/01/07 05:07:46;;;;;;;1.90;1.17;;;;;9.90;100810.00;;;;9876364;30;20778;-79
2023/01/07 05:12:49;;;;;;;3.70;1.40;;;;;9.80;100809.00;;;;9890672;29;20227;-79
2023/01/07 05:17:52;;;;;;;1.07;0.97;;;;;9.80;100807.00;;;;9862558;30;20223;-80
2023/01/07 05:22:58;;;;;;;1.30;0.87;;;;;9.90;100805.00;;;;9875892;30;20196;-80
2023/01/07 05:28:00;;;;;;;1.53;1.10;;;;;9.90;100799.00;;;;9875789;30;20203;-80
2023/01/07 05:33:06;;;;;;;1.17;1.00;;;;;9.90;100781.00;;;;9889857;30;20683;-80
2023/01/07 05:38:09;;;;;;;2.70;0.90;;;;;9.90;100783.00;;;;9875544;30;20286;-80
2023/01/07 05:43:11;;;;;;;1.10;0.90;;;;;10.00;100769.00;;;;9874777;30;20202;-80
2023/01/07 05:48:14;;;;;;;1.83;1.00;;;;;10.00;100766.00;;;;9875047;30;20199;-80
2023/01/07 05:53:16;;;;;;;1.93;1.10;;;;;10.00;100754.00;;;;9889100;30;20691;-79
2023/01/07 05:58:18;;;;;;;3.63;0.97;;;;;9.90;100755.00;;;;9904028;30;20207;-80
2023/01/07 06:03:20;;;;;;;1.67;1.17;;;;;9.90;100749.00;;;;9904034;30;20250;-79
2023/01/07 06:08:23;;;;;;;1.33;0.90;;;;;9.80;100738.00;;;;9888170;29;20207;-80
2023/01/07 06:13:24;;;;;;;1.73;1.17;;;;;9.80;100737.00;;;;9873741;30;20227;-80
2023/01/07 06:18:26;;;;;;;2.43;1.00;;;;;9.90;100741.00;;;;9872755;30;20304;-80
2023/01/07 06:23:28;;;;;;;5.33;0.90;;;;;9.90;100749.00;;;;9887907;30;20586;-80
2023/01/07 06:28:30;;;;;;;0.97;0.87;;;;;9.90;100748.00;;;;9872914;30;21128;-80
2023/01/07 06:33:32;;;;;;;1.43;1.07;;;;;9.90;100744.00;;;;9902410;30;20219;-80
2023/01/07 06:38:34;;;;;;;2.50;1.10;;;;;9.90;100742.00;;;;9843481;30;20222;-80
2023/01/07 06:43:36;;;;;;;1.17;1.00;;;;;9.90;100737.00;;;;9902227;30;20196;-80
2023/01/07 06:48:38;;;;;;;1.00;0.80;;;;;10.00;100736.00;;;;9872555;30;21117;-79
2023/01/07 06:53:40;;;;;;;1.03;0.90;;;;;10.00;100736.00;;;;9901923;30;20215;-80
2023/01/07 06:58:42;;;;;;;1.70;1.10;;;;;10.00;100733.00;;;;9872660;30;20685;-80
2023/01/07 07:03:44;;;;;;;1.73;0.80;;;;;10.00;100718.00;;;;9887775;30;20206;-79
2023/01/07 07:08:46;;;;;;;2.43;1.03;;;;;10.00;100716.00;;;;9857963;29;20228;-80
2023/01/07 07:13:48;;;;;;;2.07;0.90;;;;;10.10;100706.00;;;;9857860;30;20223;-80
2023/01/07 07:18:51;;;;;;;3.77;1.37;;;;;10.10;100718.00;;;;9856892;30;20211;-79
2023/01/07 07:23:53;;;;;;;2.33;1.13;;;;;10.20;100709.00;;;;9900718;29;20200;-79
2023/01/07 07:28:55;;;;;;;2.50;1.00;;;;;10.20;100708.00;;;;9876266;30;20233;-79
2023/01/07 07:33:57;;;;;;;1.80;1.10;;;;;10.20;100706.00;;;;9864567;30;20211;-79
2023/01/07 07:38:59;;;;;;;1.30;0.60;;;;;10.20;100705.00;;;;9894364;30;20187;-79
2023/01/07 07:44:01;;;;;;;1.13;0.60;;;;;10.20;100686.00;;;;9864278;30;20204;-79
2023/01/07 07:49:04;;;;;;;1.03;0.70;;;;;10.20;100681.00;;;;9894218;30;20203;-80
2023/01/07 07:54:06;;;;;;;0.90;0.60;;;;;10.30;100678.00;;;;9878184;30;20230;-80
2023/01/07 07:59:08;;;;;;;0.80;0.60;;;;;10.30;100679.00;;;;9878492;30;20587;-80
2023/01/07 08:04:10;;;;;;;0.90;0.80;;;;;10.30;100674.00;;;;9877972;30;20188;-80
2023/01/07 08:09:12;;;;;;;1.17;0.80;;;;;10.30;100671.00;;;;9892657;29;20219;-80
2023/01/07 08:14:14;;;;;;;1.67;0.73;;;;;10.30;100661.00;;;;9863592;30;20220;-80
2023/01/07 08:19:16;;;;;;;1.20;0.80;;;;;10.30;100653.00;;;;9863380;30;20679;-80
2023/01/07 08:24:19;;;;;;;2.80;1.10;;;;;10.30;100648.00;;;;9874138;30;20236;-80
2023/01/07 08:29:22;;;;;;;0.90;0.70;;;;;10.40;100641.00;;;;9863228;30;20204;-79
2023/01/07 08:34:24;;;;;;;1.30;0.93;;;;;10.40;100644.00;;;;9862202;30;20278;-80
2023/01/07 08:39:26;;;;;;;3.23;1.00;;;;;10.40;100625.00;;;;9861331;29;20286;-80
2023/01/07 08:44:28;;;;;;;1.40;1.00;;;;;10.30;100609.00;;;;9876731;30;20204;-80
2023/01/07 08:49:30;;;;;;;0.70;0.70;;;;;10.30;100605.00;;;;9876150;30;20211;-80
2023/01/07 08:54:32;;;;;;;0.77;0.77;;;;;10.30;100582.00;;;;9890845;30;20212;-80
2023/01/07 08:59:34;;;;;;;1.47;0.90;;;;;10.30;100575.00;;;;9860918;30;20200;-80
2023/01/07 09:04:36;;;;;;;1.90;1.53;;;;;10.50;100595.00;;;;9868427;29;20773;-80
2023/01/07 09:09:38;;;;;;;1.47;1.10;;;;;10.70;100595.00;;;;9904863;29;20228;-81
2023/01/07 09:14:40;;;;;;;1.13;1.00;;;;;10.90;100603.00;;;;9859886;30;20228;-80
2023/01/07 09:19:42;;;;;;;1.57;0.87;;;;;11.10;100592.00;;;;9875490;30;20249;-79
2023/01/07 09:24:44;;;;;;;1.80;0.80;;;;;11.20;100577.00;;;;9845078;30;20273;-80
2023/01/07 09:29:48;;;;;;;1.33;0.77;;;;;11.20;100587.00;;;;9852786;30;20667;-80
2023/01/07 09:34:50;;;;;;;0.90;0.70;;;;;11.30;100587.00;;;;9889031;30;20219;-80
2023/01/07 09:39:52;;;;;;;0.80;0.80;;;;;11.40;100573.00;;;;9874225;30;20192;-80
2023/01/07 09:45:15;;;;;;;0.97;0.70;;;;;11.50;100558.00;;;;9859893;30;20861;-79
2023/01/07 09:50:43;;;;;;;1.40;1.00;;;;;11.80;100542.00;;;;9889319;30;20202;-80
2023/01/07 09:55:48;;;;;;;1.03;0.90;;;;;12.00;100522.00;;;;9889537;30;20219;-79
2023/01/07 10:01:22;;;;;;;1.17;0.80;;;;;12.10;100519.00;;;;9858799;30;20206;-80
2023/01/07 10:06:27;;;;;;;0.87;0.83;;;;;12.30;100518.00;;;;9874519;30;20223;-80
2023/01/07 10:12:29;;;;;;;1.63;1.00;;;;;12.40;100527.00;;;;9859867;30;20262;-80
2023/01/07 10:17:55;;;;;;;0.73;0.67;;;;;12.40;100520.00;;;;9884166;30;20329;-80
2023/01/07 10:23:11;;;;;;;1.00;0.90;;;;;12.60;100507.00;;;;9858887;30;20729;-80
2023/01/07 10:28:23;;;;;;;1.00;0.90;;;;;12.80;100490.00;;;;9873428;30;20199;-80
2023/01/07 10:33:28;;;;;;;1.07;0.93;;;;;12.90;100493.00;;;;9887417;30;20490;-81
2023/01/07 10:38:34;;;;;;;0.83;0.83;;;;;12.90;100480.00;;;;9873075;30;20679;-79
2023/01/07 10:43:58;;;;;;;1.77;1.10;;;;;13.00;100479.00;;;;9887451;30;20206;-80
2023/01/07 10:49:39;;;;;;;1.70;1.03;;;;;13.10;100447.00;;;;9857938;30;20196;-80
2023/01/07 10:54:59;;;;;;;1.20;1.10;;;;;13.20;100433.00;;;;9854712;30;20243;-80
2023/01/07 11:00:04;;;;;;;1.53;1.30;;;;;13.50;100417.00;;;;9857364;30;20867;-79
2023/01/07 11:05:09;;;;;;;1.23;0.93;;;;;13.70;100414.00;;;;9864261;30;20245;-80
2023/01/07 11:10:16;;;;;;;1.13;1.00;;;;;14.00;100392.00;;;;9850420;29;20253;-80
2023/01/07 11:15:22;;;;;;;1.23;1.10;;;;;14.20;100379.00;;;;9879080;30;20356;-81
2023/01/07 11:20:43;;;;;;;1.13;1.02;;;;;14.40;100375.00;;;;9894300;30;20198;-80
2023/01/07 11:25:45;;;;;;;1.50;1.15;;;;;14.30;100374.00;;;;9894307;30;20314;-80
2023/01/07 11:30:57;;;;;;;2.15;1.60;;;;;14.20;100357.00;;;;9863672;30;20327;-80
2023/01/07 11:35:59;;;;;;;2.25;1.20;;;;;14.30;100353.00;;;;9878742;30;20246;-80
2023/01/07 11:41:03;;;;;;;1.50;1.17;;;;;14.30;100342.00;;;;9894000;30;20310;-80
2023/01/07 11:46:12;;;;;;;1.20;1.10;;;;;14.20;100332.00;;;;9893306;30;20758;-81
2023/01/07 11:51:23;;;;;;;1.50;1.05;;;;;14.10;100322.00;;;;9864745;30;20199;-80
2023/01/07 11:56:28;;;;;;;2.17;1.13;;;;;13.70;100319.00;;;;9863345;30;20220;-80
2023/01/07 12:01:42;;;;;;;4.90;1.33;;;;;13.30;100318.00;;;;9877414;30;20571;-80
2023/01/07 12:06:46;;;;;;;1.40;1.10;;;;;13.00;100319.00;;;;9876022;30;20300;-79
2023/01/07 12:11:49;;;;;;;2.93;1.30;;;;;13.40;100306.00;;;;9861636;30;20243;-80
2023/01/07 12:16:52;;;;;;;2.15;1.10;;;;;13.80;100295.00;;;;9876076;30;20760;-80
2023/01/07 12:22:29;;;;;;;1.27;1.08;;;;;13.90;100286.00;;;;9886154;29;20203;-80
2023/01/07 12:27:56;;;;;;;3.42;1.27;;;;;14.10;100275.00;;;;9920098;29;20199;-79
2023/01/07 12:33:24;;;;;;;1.10;1.00;;;;;13.90;100267.00;;;;9896211;29;20226;-80
2023/01/07 12:38:42;;;;;;;2.72;1.17;;;;;13.80;100250.00;;;;9891618;30;20712;-81
2023/01/07 12:43:59;;;;;;;1.00;0.90;;;;;13.30;100245.00;;;;9863453;30;20199;-81
2023/01/07 12:49:01;;;;;;;2.70;1.40;;;;;13.10;100216.00;;;;9847210;30;20579;-80
2023/01/07 12:54:14;;;;;;;1.67;1.58;;;;;13.50;100204.00;;;;9872210;30;20220;-81
2023/01/07 12:59:39;;;;;;;1.67;1.10;;;;;13.90;100171.00;;;;9864282;30;20226;-80
2023/01/07 13:05:14;;;;;;;2.03;1.10;;;;;13.90;100182.00;;;;9878558;30;20212;-81
2023/01/07 13:10:23;;;;;;;1.45;1.20;;;;;13.60;100172.00;;;;9877072;29;20238;-79
2023/01/07 13:15:32;;;;;;;1.63;1.13;;;;;13.60;100150.00;;;;9890064;30;20238;-81
2023/01/07 13:20:54;;;;;;;1.65;1.10;;;;;13.60;100126.00;;;;9875176;30;20239;-80
2023/01/07 13:26:08;;;;;;;1.47;0.97;;;;;13.60;100141.00;;;;9874431;29;20207;-80
2023/01/07 13:31:42;;;;;;;2.72;1.38;;;;;13.30;100142.00;;;;9859563;30;20681;-80
2023/01/07 13:37:25;;;;;;;1.77;1.53;;;;;13.10;100135.00;;;;9845295;30;20240;-80
2023/01/07 13:42:34;;;;;;;1.73;1.23;;;;;13.00;100125.00;;;;9873895;30;20207;-80
2023/01/07 13:47:49;;;;;;;3.47;1.33;;;;;12.70;100134.00;;;;9870395;30;20206;-80
2023/01/07 13:53:01;;;;;;;1.67;1.40;;;;;12.50;100129.00;;;;9844885;30;20218;-80
2023/01/07 13:58:41;;;;;;;2.30;1.03;;;;;12.30;100131.00;;;;9873805;30;20549;-81
2023/01/07 14:03:57;;;;;;;1.80;1.10;;;;;12.10;100127.00;;;;9886160;29;20203;-80
2023/01/07 14:09:12;;;;;;;2.20;1.23;;;;;12.00;100123.00;;;;9909837;29;20233;-80
2023/01/07 14:14:28;;;;;;;2.37;1.23;;;;;12.00;100117.00;;;;9861993;30;20218;-80
2023/01/07 14:19:54;;;;;;;2.10;1.23;;;;;12.00;100116.00;;;;9843393;30;20203;-80
2023/01/07 14:25:25;;;;;;;1.33;1.03;;;;;11.90;100120.00;;;;9836452;30;20208;-80
2023/01/07 14:30:35;;;;;;;1.90;1.23;;;;;11.90;100103.00;;;;9880178;30;20212;-80
2023/01/07 14:35:40;;;;;;;1.50;1.40;;;;;11.90;100107.00;;;;9887236;30;20219;-79
2023/01/07 14:40:42;;;;;;;1.50;1.17;;;;;11.90;100104.00;;;;9844776;30;20222;-80
2023/01/07 14:45:43;;;;;;;2.10;1.30;;;;;11.80;100102.00;;;;9858418;30;20576;-81
2023/01/07 14:50:48;;;;;;;4.03;2.00;;;;;11.70;100092.00;;;;9888092;30;20606;-81
2023/01/07 14:55:59;;;;;;;2.17;1.33;;;;;11.70;100096.00;;;;9858046;30;20314;-79
2023/01/07 15:01:20;;;;;;;2.13;1.53;;;;;11.60;100098.00;;;;9872311;30;20227;-80
2023/01/07 15:06:38;;;;;;;2.57;1.57;;;;;11.60;100070.00;;;;9872301;29;20207;-81
2023/01/07 15:17:03;;;;;;;2.10;1.47;;;;;11.50;100081.00;;;;9871729;30;20789;-81
2023/01/07 15:22:25;;;;;;;2.23;1.70;;;;;11.40;100070.00;;;;9858734;30;20212;-80
2023/01/07 15:27:49;;;;;;;2.17;1.30;;;;;11.30;100059.00;;;;9883855;30;20463;-80
2023/01/07 15:33:24;;;;;;;3.47;1.50;;;;;11.00;100048.00;;;;9857823;30;20232;-80
2023/01/07 15:38:30;;;;;;;2.83;1.40;;;;;10.90;100056.00;;;;9842215;30;20265;-81
2023/01/07 15:43:33;;;;;;;2.07;1.40;;;;;10.80;100047.00;;;;9856692;30;20749;-80
2023/01/07 15:48:34;;;;;;;2.13;1.63;;;;;10.80;100044.00;;;;9874349;29;20191;-80
2023/01/07 15:53:37;;;;;;;1.80;1.43;;;;;10.50;100043.00;;;;9863357;30;20311;-79
2023/01/07 15:58:47;;;;;;;3.37;1.90;;;;;10.10;100025.00;;;;9877629;30;20686;-80
2023/01/07 16:03:53;;;;;;;1.80;1.40;;;;;9.60;100032.00;;;;9878020;30;20217;-82
2023/01/07 16:08:56;;;;;;;2.00;1.63;;;;;9.30;100037.00;;;;9892611;29;20247;-81
2023/01/07 16:14:01;;;;;;;1.60;1.20;;;;;9.20;100023.00;;;;9877197;30;20220;-81
2023/01/07 16:19:04;;;;;;;1.70;1.60;;;;;9.10;100014.00;;;;9862199;30;20565;-81
2023/01/07 16:24:06;;;;;;;2.60;2.10;;;;;9.10;100005.00;;;;9870430;30;20200;-81
2023/01/07 16:29:17;;;;;;;3.50;1.90;;;;;9.00;99985.00;;;;9884912;30;20207;-81
2023/01/07 16:34:22;;;;;;;2.40;1.77;;;;;9.00;99978.00;;;;9867710;30;20575;-80
2023/01/07 16:39:37;;;;;;;2.50;1.70;;;;;9.00;99968.00;;;;9861528;30;20203;-80
2023/01/07 16:44:57;;;;;;;3.17;1.70;;;;;9.00;99954.00;;;;9876306;30;20799;-79
2023/01/07 16:50:14;;;;;;;5.53;1.87;;;;;9.10;99961.00;;;;9861640;30;20207;-80
2023/01/07 16:55:54;;;;;;;2.33;1.90;;;;;9.10;99946.00;;;;9876089;30;20219;-79
2023/01/07 17:00:58;;;;;;;5.70;2.23;;;;;9.20;99949.00;;;;9860903;29;20583;-79
2023/01/07 17:06:06;;;;;;;2.30;1.50;;;;;9.20;99944.00;;;;9890223;29;20262;-79
2023/01/07 17:11:27;;;;;;;2.50;1.90;;;;;9.30;99939.00;;;;9875592;29;20750;-79
2023/01/07 17:16:30;;;;;;;2.47;1.80;;;;;9.30;99928.00;;;;9872017;30;20231;-79
2023/01/07 17:21:38;;;;;;;2.27;1.80;;;;;9.40;99930.00;;;;9895792;29;20210;-79
2023/01/07 17:26:41;;;;;;;2.40;1.80;;;;;9.40;99934.00;;;;9897439;29;20685;-79
2023/01/07 17:31:43;;;;;;;3.23;1.77;;;;;9.50;99937.00;;;;9892017;30;20203;-80
2023/01/07 17:36:46;;;;;;;2.47;1.90;;;;;9.50;99932.00;;;;9845842;30;20212;-80
2023/01/07 17:47:20;;;;;;;2.73;1.33;;;;;9.60;99909.00;;;;9859977;30;20667;-79
2023/01/07 17:52:23;;;;;;;4.67;1.77;;;;;9.60;99917.00;;;;9845614;30;20229;-80
2023/01/07 17:57:24;;;;;;;2.03;1.83;;;;;9.70;99927.00;;;;9859726;30;20239;-80
2023/01/07 18:02:28;;;;;;;3.00;1.87;;;;;9.70;99931.00;;;;9874018;30;20676;-79
2023/01/07 18:07:30;;;;;;;2.67;1.73;;;;;9.70;99929.00;;;;9889106;30;20245;-80
2023/01/07 18:12:33;;;;;;;2.50;1.87;;;;;9.70;99930.00;;;;9888691;30;20231;-79
2023/01/07 18:17:35;;;;;;;2.13;1.67;;;;;9.70;99906.00;;;;9876899;30;20223;-80
2023/01/07 18:22:37;;;;;;;2.70;1.77;;;;;9.70;99921.00;;;;9873652;30;20676;-80
2023/01/07 18:27:39;;;;;;;2.67;1.80;;;;;9.50;99919.00;;;;9874090;30;20196;-80
2023/01/07 18:32:42;;;;;;;4.27;2.13;;;;;9.50;99919.00;;;;9882225;29;20660;-80
2023/01/07 18:37:46;;;;;;;2.37;1.90;;;;;9.40;99919.00;;;;9849953;30;20220;-79
2023/01/07 18:42:48;;;;;;;1.60;1.50;;;;;9.50;99925.00;;;;9874331;30;20738;-79
2023/01/07 18:47:50;;;;;;;2.73;2.03;;;;;9.40;99929.00;;;;9864615;30;20253;-79
2023/01/07 18:52:52;;;;;;;1.73;1.53;;;;;9.40;99928.00;;;;9881269;30;20283;-79
2023/01/07 18:57:54;;;;;;;2.70;1.77;;;;;9.40;99920.00;;;;9860482;29;20297;-79
2023/01/07 19:02:57;;;;;;;2.07;1.23;;;;;9.30;99919.00;;;;9878729;29;20251;-79
2023/01/07 19:07:59;;;;;;;2.87;1.43;;;;;9.30;99926.00;;;;9863866;30;20196;-78
2023/01/07 19:13:01;;;;;;;2.23;1.63;;;;;9.30;99903.00;;;;9876194;30;20389;-79
2023/01/07 19:18:03;;;;;;;2.23;1.57;;;;;9.30;99887.00;;;;9874845;30;20688;-79
2023/01/07 19:23:06;;;;;;;3.43;1.80;;;;;9.40;99877.00;;;;9851930;29;20211;-78
2023/01/07 19:28:08;;;;;;;2.27;1.50;;;;;9.50;99902.00;;;;9894216;29;20206;-79
2023/01/07 19:33:10;;;;;;;2.50;1.70;;;;;9.60;99894.00;;;;9884207;30;20199;-78
2023/01/07 19:38:12;;;;;;;2.30;1.40;;;;;9.60;99899.00;;;;9833227;30;20219;-78
2023/01/07 19:43:14;;;;;;;1.60;1.50;;;;;9.60;99895.00;;;;9872722;30;20740;-78
2023/01/07 19:48:16;;;;;;;1.87;1.60;;;;;9.60;99897.00;;;;9871521;30;20253;-79
2023/01/07 19:53:18;;;;;;;4.20;1.93;;;;;9.60;99903.00;;;;9858590;29;20201;-78
2023/01/07 19:58:20;;;;;;;5.50;1.40;;;;;9.70;99906.00;;;;9875136;30;20216;-78
2023/01/07 20:03:22;;;;;;;3.13;1.70;;;;;9.70;99890.00;;;;9850598;30;20198;-78
2023/01/07 20:08:24;;;;;;;2.20;1.77;;;;;9.70;99887.00;;;;9903315;30;20213;-79
2023/01/07 20:13:27;;;;;;;4.17;1.83;;;;;9.70;99874.00;;;;9891463;30;20200;-78
2023/01/07 20:18:30;;;;;;;2.03;1.77;;;;;9.70;99873.00;;;;9863317;30;20227;-77
2023/01/07 20:23:37;;;;;;;2.77;1.53;;;;;9.80;99870.00;;;;9871879;30;20193;-78
2023/01/07 20:28:39;;;;;;;2.27;1.90;;;;;9.80;99881.00;;;;9826318;30;20193;-78
2023/01/07 20:33:42;;;;;;;4.03;2.17;;;;;9.90;99885.00;;;;9864493;29;20290;-79
2023/01/07 20:38:45;;;;;;;4.30;2.30;;;;;9.90;99888.00;;;;9862119;30;20226;-78
2023/01/07 20:43:53;;;;;;;2.37;1.67;;;;;10.00;99881.00;;;;9906030;30;20276;-78
2023/01/07 20:48:56;;;;;;;3.37;2.03;;;;;10.00;99883.00;;;;9862347;30;20200;-78
2023/01/07 20:53:58;;;;;;;2.97;2.07;;;;;10.00;99870.00;;;;9907704;29;20315;-79
2023/01/07 20:59:01;;;;;;;6.10;2.30;;;;;10.00;99862.00;;;;9875354;30;20257;-79
2023/01/07 21:04:03;;;;;;;4.20;2.10;;;;;9.90;99853.00;;;;9875765;30;20214;-79
2023/01/07 21:09:05;;;;;;;2.40;1.77;;;;;9.90;99850.00;;;;9890158;29;20222;-79
2023/01/07 21:14:08;;;;;;;2.63;2.00;;;;;9.90;99837.00;;;;9889573;30;20310;-79
2023/01/07 21:19:09;;;;;;;2.13;1.63;;;;;9.90;99839.00;;;;9875393;30;20270;-79
2023/01/07 21:24:15;;;;;;;3.20;2.07;;;;;9.90;99850.00;;;;9856239;30;20197;-79
2023/01/07 21:29:17;;;;;;;3.27;2.27;;;;;9.90;99849.00;;;;9860386;30;20235;-81
2023/01/07 21:34:20;;;;;;;3.37;1.87;;;;;9.80;99836.00;;;;9874970;30;20191;-80
2023/01/07 21:39:22;;;;;;;2.80;2.10;;;;;9.80;99842.00;;;;9841144;30;20204;-79
2023/01/07 21:44:23;;;;;;;4.27;1.97;;;;;9.90;99836.00;;;;9862260;30;20292;-79
2023/01/07 21:49:26;;;;;;;4.33;1.93;;;;;9.90;99826.00;;;;9888738;30;20214;-79
2023/01/07 21:54:28;;;;;;;3.13;2.43;;;;;9.90;99811.00;;;;9888989;30;20219;-79
2023/01/07 21:59:30;;;;;;;5.20;2.23;;;;;9.90;99818.00;;;;9837321;30;20236;-79
2023/01/07 22:04:33;;;;;;;3.47;2.20;;;;;10.00;99798.00;;;;9833856;30;20212;-79
2023/01/07 22:09:36;;;;;;;3.33;1.80;;;;;10.10;99789.00;;;;9869686;30;20250;-78
2023/01/07 22:14:38;;;;;;;4.23;1.97;;;;;10.00;99819.00;;;;9886999;30;20281;-80
2023/01/07 22:19:40;;;;;;;4.37;1.97;;;;;9.90;99828.00;;;;9844656;30;20204;-81
2023/01/07 22:24:41;;;;;;;4.80;2.77;;;;;9.80;99812.00;;;;9894634;29;20213;-80
2023/01/07 22:29:44;;;;;;;2.37;1.47;;;;;9.80;99821.00;;;;9894651;29;20234;-80
2023/01/07 22:34:46;;;;;;;3.53;2.03;;;;;9.80;99818.00;;;;9884652;30;20200;-79
2023/01/07 22:39:54;;;;;;;4.20;2.40;;;;;9.90;99820.00;;;;9871850;30;20268;-79
2023/01/07 22:45:04;;;;;;;3.13;2.27;;;;;9.90;99817.00;;;;9857154;30;20207;-80
2023/01/07 22:50:07;;;;;;;2.03;1.83;;;;;10.00;99825.00;;;;9856610;30;20199;-79
2023/01/07 22:55:11;;;;;;;5.13;2.07;;;;;10.00;99808.00;;;;9886222;30;20224;-79
2023/01/07 23:00:35;;;;;;;2.27;1.50;;;;;10.00;99807.00;;;;9857364;29;20238;-79
2023/01/07 23:05:38;;;;;;;6.17;2.47;;;;;10.00;99818.00;;;;9893762;29;20199;-78
2023/01/07 23:10:43;;;;;;;4.63;2.57;;;;;10.00;99808.00;;;;9864532;29;20244;-78
2023/01/07 23:15:45;;;;;;;4.50;2.00;;;;;9.90;99819.00;;;;9870613;30;20234;-78
2023/01/07 23:20:48;;;;;;;3.63;2.13;;;;;9.90;99824.00;;;;9871313;30;20210;-78
2023/01/07 23:25:50;;;;;;;3.97;2.17;;;;;9.80;99803.00;;;;9869433;30;20196;-79
2023/01/07 23:30:52;;;;;;;3.37;1.90;;;;;9.80;99806.00;;;;9857078;30;20624;-79
2023/01/07 23:36:05;;;;;;;5.00;2.33;;;;;9.80;99805.00;;;;9856744;30;20587;-79
2023/01/07 23:41:09;;;;;;;5.07;2.47;;;;;9.80;99801.00;;;;9857565;30;20188;-79
2023/01/07 23:46:11;;;;;;;4.30;1.83;;;;;9.80;99803.00;;;;9872374;30;20893;-79
2023/01/07 23:51:16;;;;;;;4.97;2.30;;;;;9.80;99794.00;;;;9849723;30;20237;-79
2023/01/07 23:56:20;;;;;;;3.57;2.17;;;;;9.90;99801.00;;;;9873137;30;20227;-79
